createdAt,value
2019-02-23T00:02:27.817Z,11.47
2019-02-23T00:07:30.510Z,11.23
2019-02-23T00:12:33.209Z,10.73
2019-02-23T00:17:35.894Z,11.07
2019-02-23T00:22:38.601Z,9.13
2019-02-23T00:27:41.342Z,10.33
2019-02-23T00:32:44.007Z,10.20
2019-02-23T00:37:46.743Z,9.80
2019-02-23T00:42:49.419Z,10.07
2019-02-23T00:47:52.109Z,10.30
2019-02-23T00:52:54.822Z,11.23
2019-02-23T00:57:57.507Z,10.50
2019-02-23T01:03:00.214Z,10.47
2019-02-23T01:08:02.894Z,10.13
2019-02-23T01:13:05.577Z,9.27
2019-02-23T01:18:08.275Z,8.70
2019-02-23T01:23:10.972Z,7.00
2019-02-23T01:28:13.686Z,6.80
2019-02-23T01:33:16.364Z,6.30
2019-02-23T01:38:19.052Z,5.87
2019-02-23T01:43:21.735Z,6.00
2019-02-23T01:48:24.408Z,6.83
2019-02-23T01:53:27.134Z,5.07
2019-02-23T01:58:29.826Z,5.33
2019-02-23T02:03:32.532Z,5.73
2019-02-23T02:08:36.037Z,5.30
2019-02-23T02:13:38.902Z,6.23
2019-02-23T02:18:41.596Z,5.87
2019-02-23T02:23:44.273Z,5.90
2019-02-23T02:28:47.055Z,6.13
2019-02-23T02:34:12.766Z,5.47
2019-02-23T02:39:15.795Z,7.70
2019-02-23T02:44:18.486Z,6.17
2019-02-23T02:49:21.167Z,5.83
2019-02-23T02:54:23.893Z,5.87
2019-02-23T02:59:26.575Z,6.50
2019-02-23T03:04:29.270Z,6.17
2019-02-23T03:09:31.975Z,5.70
2019-02-23T03:14:34.674Z,5.90
2019-02-23T03:19:37.481Z,5.80
2019-02-23T03:24:40.179Z,5.87
2019-02-23T03:29:42.911Z,5.47
2019-02-23T03:34:45.607Z,5.60
2019-02-23T03:39:48.336Z,6.27
2019-02-23T03:44:51.030Z,5.40
2019-02-23T03:49:53.717Z,6.97
2019-02-23T03:54:56.412Z,5.90
2019-02-23T03:59:59.117Z,6.03
2019-02-23T04:05:01.822Z,6.20
2019-02-23T04:10:04.855Z,6.07
2019-02-23T04:15:07.704Z,6.73
2019-02-23T04:20:10.409Z,7.30
2019-02-23T04:25:13.151Z,7.57
2019-02-23T04:30:15.860Z,8.13
2019-02-23T04:35:18.563Z,8.03
2019-02-23T04:40:21.256Z,8.57
2019-02-23T04:45:23.954Z,7.50
2019-02-23T04:50:26.682Z,9.63
2019-02-23T04:55:29.390Z,8.33
2019-02-23T05:00:32.078Z,9.80
2019-02-23T05:05:34.790Z,9.20
2019-02-23T05:10:37.500Z,10.10
2019-02-23T05:15:40.195Z,9.93
2019-02-23T05:20:42.917Z,9.60
2019-02-23T05:25:45.673Z,9.27
2019-02-23T05:30:48.381Z,9.80
2019-02-23T05:35:51.121Z,9.90
2019-02-23T05:40:53.803Z,9.53
2019-02-23T05:45:56.512Z,9.43
2019-02-23T05:50:59.214Z,9.87
2019-02-23T05:56:02.012Z,9.07
2019-02-23T06:01:04.731Z,9.83
2019-02-23T06:06:25.238Z,9.60
2019-02-23T06:11:27.988Z,9.40
2019-02-23T06:16:30.868Z,11.40
2019-02-23T06:21:33.726Z,9.83
2019-02-23T06:26:37.785Z,9.20
2019-02-23T06:31:40.499Z,8.50
2019-02-23T06:36:43.549Z,10.03
2019-02-23T06:41:46.445Z,9.20
2019-02-23T06:46:49.519Z,10.70
2019-02-23T06:52:03.470Z,9.20
2019-02-23T06:56:57.000Z,9.60
2019-02-23T07:01:59.722Z,10.43
2019-02-23T07:07:02.423Z,9.00
2019-02-23T07:12:05.350Z,9.70
2019-02-23T07:17:08.598Z,9.70
2019-02-23T07:22:15.639Z,9.17
2019-02-23T07:27:16.125Z,9.77
2019-02-23T07:32:21.363Z,9.80
2019-02-23T07:37:25.673Z,9.13
2019-02-23T07:42:28.383Z,9.90
2019-02-23T07:47:31.250Z,10.50
2019-02-23T07:52:33.974Z,9.50
2019-02-23T08:02:53.398Z,10.00
2019-02-23T08:07:57.441Z,8.60
2019-02-23T08:13:12.999Z,9.97
2019-02-23T08:18:16.046Z,9.73
2019-02-23T08:23:18.802Z,10.30
2019-02-23T08:28:21.627Z,11.03
2019-02-23T08:33:24.392Z,9.83
2019-02-23T08:38:46.556Z,9.93
2019-02-23T08:43:49.239Z,10.43
2019-02-23T08:48:51.903Z,9.57
2019-02-23T08:53:54.583Z,10.40
2019-02-23T08:58:57.255Z,10.87
2019-02-23T09:03:59.928Z,10.33
2019-02-23T09:09:03.935Z,11.00
2019-02-23T09:14:06.634Z,10.87
2019-02-23T09:19:09.319Z,16.80
2019-02-23T09:24:12.012Z,11.10
2019-02-23T09:29:14.708Z,11.60
2019-02-23T09:34:17.399Z,11.20
2019-02-23T09:39:20.060Z,13.77
2019-02-23T09:44:22.726Z,12.20
2019-02-23T09:49:25.412Z,11.07
2019-02-23T09:54:30.560Z,10.10
2019-02-23T09:59:32.699Z,11.33
2019-02-23T10:04:35.401Z,11.70
2019-02-23T10:09:38.065Z,12.67
2019-02-23T10:14:40.739Z,12.67
2019-02-23T10:19:43.433Z,11.77
2019-02-23T10:24:46.113Z,12.07
2019-02-23T10:29:48.859Z,12.20
2019-02-23T10:34:51.554Z,11.10
2019-02-23T10:39:54.223Z,11.70
2019-02-23T10:44:56.890Z,11.53
2019-02-23T10:49:59.553Z,11.93
2019-02-23T10:55:02.358Z,12.60
2019-02-23T11:00:13.499Z,10.23
2019-02-23T11:05:16.650Z,12.10
2019-02-23T11:10:19.734Z,11.57
2019-02-23T11:15:22.733Z,11.10
2019-02-23T11:20:25.512Z,12.03
2019-02-23T11:25:28.252Z,11.80
2019-02-23T11:30:30.959Z,12.00
2019-02-23T11:35:33.679Z,11.40
2019-02-23T11:40:36.362Z,11.50
2019-02-23T11:45:39.056Z,12.40
2019-02-23T11:50:41.904Z,9.87
2019-02-23T12:06:06.415Z,10.60
2019-02-23T12:11:09.092Z,9.73
2019-02-23T12:16:11.778Z,10.10
2019-02-23T12:21:14.457Z,11.20
2019-02-23T12:26:17.273Z,11.43
2019-02-23T12:31:19.953Z,11.70
2019-02-23T12:36:22.623Z,11.03
2019-02-23T12:41:25.306Z,11.47
2019-02-23T12:46:28.103Z,12.40
2019-02-23T12:51:30.822Z,12.60
2019-02-23T12:56:33.647Z,11.07
2019-02-23T13:01:37.871Z,11.57
2019-02-23T13:06:40.639Z,12.93
2019-02-23T13:11:58.090Z,12.20
2019-02-23T13:17:20.617Z,10.23
2019-02-23T13:23:48.656Z,10.40
2019-02-23T13:29:24.870Z,11.70
2019-02-23T13:35:16.519Z,11.73
2019-02-23T13:41:15.834Z,10.20
2019-02-23T13:46:50.573Z,12.00
2019-02-23T13:53:08.613Z,11.87
2019-02-23T13:58:32.107Z,12.67
2019-02-23T14:04:14.865Z,11.47
2019-02-23T14:10:29.940Z,12.03
2019-02-23T14:16:15.456Z,10.63
2019-02-23T14:22:37.527Z,10.97
2019-02-23T14:28:52.580Z,12.50
2019-02-23T14:34:56.816Z,11.37
2019-02-23T14:40:47.566Z,18.17
2019-02-23T14:47:06.414Z,21.87
2019-02-23T14:53:17.786Z,9.97
2019-02-23T14:58:35.357Z,9.40
2019-02-23T15:04:23.565Z,8.87
2019-02-23T15:09:59.537Z,8.63
2019-02-23T15:16:17.186Z,7.97
2019-02-23T15:22:15.981Z,7.53
2019-02-23T15:28:07.446Z,7.67
2019-02-23T15:34:01.336Z,7.60
2019-02-23T15:40:11.589Z,7.60
2019-02-23T15:46:03.972Z,9.13
2019-02-23T15:51:06.875Z,7.53
2019-02-23T15:56:09.613Z,6.60
2019-02-23T16:01:12.295Z,6.57
2019-02-23T16:06:14.990Z,6.07
2019-02-23T16:11:17.666Z,7.13
2019-02-23T16:16:20.382Z,6.40
2019-02-23T16:21:23.065Z,6.37
2019-02-23T16:26:25.785Z,6.03
2019-02-23T16:31:28.482Z,6.67
2019-02-23T16:36:31.296Z,6.97
2019-02-23T16:41:34.023Z,6.30
2019-02-23T16:46:36.797Z,8.27
2019-02-23T16:51:39.466Z,7.07
2019-02-23T16:56:42.154Z,6.80
2019-02-23T17:01:44.827Z,6.57
2019-02-23T17:06:47.521Z,7.60
2019-02-23T17:11:50.192Z,8.03
2019-02-23T17:16:52.871Z,8.90
2019-02-23T17:21:55.544Z,9.30
2019-02-23T17:26:58.280Z,15.80
2019-02-23T17:32:00.953Z,8.90
2019-02-23T17:37:03.627Z,8.90
2019-02-23T17:42:06.302Z,9.60
2019-02-23T17:47:09.020Z,10.70
2019-02-23T17:52:11.738Z,12.00
2019-02-23T17:57:14.709Z,12.00
2019-02-23T18:02:17.623Z,13.20
2019-02-23T18:07:20.336Z,11.97
2019-02-23T18:12:23.764Z,10.20
2019-02-23T18:17:26.453Z,9.50
2019-02-23T18:22:29.133Z,10.83
2019-02-23T18:27:31.859Z,13.57
2019-02-23T18:32:34.567Z,12.43
2019-02-23T18:42:48.190Z,11.53
2019-02-23T18:47:50.857Z,13.40
2019-02-23T18:52:53.718Z,10.20
2019-02-23T18:57:56.470Z,10.23
2019-02-23T19:02:59.176Z,9.83
2019-02-23T19:08:01.943Z,8.30
2019-02-23T19:13:04.675Z,7.80
2019-02-23T19:18:07.838Z,8.90
2019-02-23T19:23:10.602Z,8.27
2019-02-23T19:28:13.507Z,11.03
2019-02-23T19:33:16.304Z,11.00
2019-02-23T19:38:19.072Z,9.57
2019-02-23T19:43:21.775Z,9.40
2019-02-23T19:48:24.458Z,8.40
2019-02-23T19:53:27.221Z,8.47
2019-02-23T19:58:29.911Z,8.10
2019-02-23T20:03:32.633Z,8.20
2019-02-23T20:08:35.467Z,8.40
2019-02-23T20:13:38.203Z,9.17
2019-02-23T20:18:40.899Z,8.20
2019-02-23T20:23:43.594Z,8.70
2019-02-23T20:28:46.324Z,9.60
2019-02-23T20:33:49.026Z,8.37
2019-02-23T20:38:51.722Z,9.40
2019-02-23T20:43:54.411Z,10.50
2019-02-23T20:48:57.145Z,9.27
2019-02-23T20:53:59.850Z,9.27
2019-02-23T20:59:02.674Z,10.50
2019-02-23T21:09:11.691Z,10.27
2019-02-23T21:14:14.386Z,12.10
2019-02-23T21:19:17.145Z,10.20
2019-02-23T21:24:19.845Z,10.37
2019-02-23T21:29:22.619Z,10.60
2019-02-23T21:34:25.310Z,11.53
2019-02-23T21:39:28.055Z,12.80
2019-02-23T21:44:30.750Z,11.80
2019-02-23T21:49:33.502Z,12.20
2019-02-23T21:54:36.232Z,12.40
2019-02-23T21:59:41.552Z,12.73
2019-02-23T22:04:46.657Z,11.27
2019-02-23T22:09:49.710Z,11.50
2019-02-23T22:14:52.621Z,11.90
2019-02-23T22:19:55.637Z,12.70
2019-02-23T22:24:58.489Z,15.90
2019-02-23T22:30:01.454Z,12.60
2019-02-23T22:35:04.475Z,12.77
2019-02-23T22:40:07.155Z,12.87
2019-02-23T22:45:10.147Z,11.40
2019-02-23T22:50:12.962Z,11.63
2019-02-23T22:55:16.061Z,12.60
2019-02-23T23:07:05.651Z,11.30
2019-02-23T23:12:09.560Z,11.83
2019-02-23T23:18:12.075Z,12.03
2019-02-23T23:22:33.316Z,11.30
2019-02-23T23:27:36.421Z,11.77
2019-02-23T23:32:41.831Z,11.83
2019-02-23T23:37:44.871Z,11.30
2019-02-23T23:42:47.703Z,10.63
2019-02-23T23:47:50.565Z,10.77
2019-02-23T23:52:53.320Z,12.37
2019-02-23T23:57:58.613Z,12.37
